Aeroporto :
LOGIN :

Iscrizione | Disclaimer

   EN    FR    IT 

 










Sommario :    VFR   VFR Marginale   IFR   IFR Intensivo   IFR Molto Intensivo
Visibilità : 
Base nubi : 
>= 8 km
>= 3000ft
5 / 8 km
1000 / 3000 ft
1500m / 5 km
500 / 1000 ft
800 / 1500m
200 / 500 ft
< 800m
< 200 ft
Simboli :   Temporali  Nebbia  Neve Forte  Precipitazioni Forti  Vento > 20 kt
SIGMETs :   Varie  Temporali  Ghiacco  Turbolenza  Onda orograficha  Ceneri Vulcaniche






- Altitudine del aeroporto : 141 ft
- Codice IATA : SKS


EKSP - Srydstrup Vojens

ULTIMO METAR :
  • 051450Z 11010KT 060V150 9999 FEW032 SCT120 22/13 Q1010

METARs OBSOLETI :
  • 051420Z 10010KT 060V150 9999 FEW032 SCT120 22/14 Q1010
  • 051350Z 11011KT 070V140 9999 FEW028TCU BKN120 21/14 Q1011
  • 051320Z 08007KT 060V120 CAVOK 20/13 Q1011 NOSIG
  • 051250Z 11008KT CAVOK 19/13 Q1011 NOSIG
  • 051220Z 10009KT 070V130 9999 SCT049 BKN090 19/12 Q1011 NOSIG

TAF TAF EKSP
Valido dal 05 a 15 ore il 06 a 15 ore UTC


051419Z 0515/0615 11012KT 9999 BKN040
TEMPO 0610/0615 11015G28KT -SHRA SCT030CB



MetMap, La meteo Aeronautica in un colpo d'occhio ! - Copyright ORBIFLY Dicembre 2007 - Disclaimer

ORBIFLY MET'MAP TEAM :

Programmazione e sviluppo : Alexandra Zaïnal
Concezione : Baudouin d'Aumeries
Aiuto per la programmazione : Marc-Olivier Méhu
Supporto tecnico e logistico : Manuel Goepfert
Aiuto per la traduzione : Arnaldo La Scala

Contatto : metmap@orbifly.com




FONTI E CREDITI :

   NOAA